Time;durP1;ratioP1;P1;durP2;ratioP2;P2;SDS_P1;SDS_P2;PMS_P1;PMS_P2;Temp;Humidity;BMP_temperature;BMP_pressure;BME280_temperature;BME280_humidity;BME280_pressure;Samples;Min_cycle;Max_cycle;Signal;HPM_P1;HPM_P2
2023/08/17 00:02:16;;;;;;;1.60;1.50;;;22.00;99.90;;;22.52;88.12;100742.06;4981015;28;20645;-66
2023/08/17 00:04:43;;;;;;;1.33;0.90;;;22.00;99.90;;;22.53;88.08;100747.19;4978598;28;20654;-65
2023/08/17 00:07:10;;;;;;;1.47;1.37;;;22.00;99.90;;;22.51;87.72;100746.56;4976741;28;20658;-66
2023/08/17 00:09:38;;;;;;;1.43;1.33;;;22.00;99.90;;;22.51;87.94;100751.88;4980747;28;20708;-65
2023/08/17 00:12:05;;;;;;;1.43;1.33;;;22.00;99.90;;;22.48;88.21;100756.75;4982359;28;21479;-65
2023/08/17 00:14:32;;;;;;;2.03;1.53;;;22.00;99.90;;;22.46;88.18;100756.94;4985973;28;21311;-66
2023/08/17 00:16:59;;;;;;;1.70;1.60;;;22.00;99.90;;;22.47;88.13;100752.47;4978383;28;20647;-65
2023/08/17 00:19:26;;;;;;;1.00;1.00;;;21.90;99.90;;;22.45;88.17;100749.13;4995720;28;20646;-66
2023/08/17 00:21:55;;;;;;;0.90;0.90;;;21.90;99.90;;;22.42;88.51;100745.03;4978385;28;20693;-65
2023/08/17 00:24:22;;;;;;;1.00;1.00;;;21.90;99.90;;;22.35;88.96;100744.09;4969548;28;20653;-65
2023/08/17 00:26:48;;;;;;;1.13;1.13;;;21.80;99.90;;;22.30;89.29;100744.66;4974224;28;20670;-65
2023/08/17 00:29:17;;;;;;;1.90;1.23;;;21.80;99.90;;;22.26;89.49;100745.19;4988353;28;20696;-65
2023/08/17 00:31:43;;;;;;;3.10;1.87;;;21.70;99.90;;;22.21;89.90;100743.09;4977268;28;20666;-65
2023/08/17 00:34:11;;;;;;;1.70;1.57;;;21.70;99.90;;;22.18;90.56;100738.16;4987397;28;20634;-65
2023/08/17 00:36:38;;;;;;;2.20;1.90;;;21.70;99.90;;;22.18;90.38;100745.28;4986600;28;20654;-64
2023/08/17 00:39:05;;;;;;;1.50;1.40;;;21.70;99.90;;;22.16;90.82;100734.03;4982634;28;20638;-64
2023/08/17 00:41:32;;;;;;;1.67;1.57;;;21.60;99.90;;;22.10;91.04;100734.75;4989198;28;20745;-65
2023/08/17 00:44:00;;;;;;;1.90;1.67;;;21.60;99.90;;;22.07;91.36;100729.78;4994841;28;20635;-66
2023/08/17 00:46:29;;;;;;;1.97;1.50;;;21.60;99.90;;;22.04;91.31;100730.97;4979131;28;20662;-65
2023/08/17 00:48:58;;;;;;;2.13;2.03;;;21.50;99.90;;;22.04;91.41;100735.47;4997681;28;21259;-64
2023/08/17 00:51:26;;;;;;;1.90;1.80;;;21.50;99.90;;;22.04;91.59;100727.50;5002202;28;20645;-66
2023/08/17 00:53:57;;;;;;;2.03;1.93;;;21.50;99.90;;;22.01;91.59;100723.38;4980857;28;20631;-65
2023/08/17 00:56:26;;;;;;;4.23;2.13;;;21.50;99.90;;;21.97;91.79;100722.09;4998997;28;20626;-64
2023/08/17 00:58:54;;;;;;;2.13;1.70;;;21.50;99.90;;;21.97;91.99;100721.25;4973226;28;20646;-67
2023/08/17 01:01:22;;;;;;;1.77;1.67;;;21.50;99.90;;;21.95;91.76;100715.31;4988927;28;21538;-66
2023/08/17 01:03:49;;;;;;;2.20;2.00;;;21.40;99.90;;;21.93;92.27;100712.00;4984481;28;20645;-65
2023/08/17 01:06:16;;;;;;;1.53;1.47;;;21.40;99.90;;;21.91;92.12;100711.38;4975795;28;20712;-65
2023/08/17 01:08:44;;;;;;;1.60;1.50;;;21.40;99.90;;;21.87;92.46;100720.72;4981521;28;21195;-65
2023/08/17 01:11:34;;;;;;;2.67;2.27;;;21.40;99.90;;;21.84;92.38;100721.06;4990898;28;20639;-65
2023/08/17 01:14:33;;;;;;;1.90;1.80;;;21.40;99.90;;;21.84;92.78;100723.72;4972927;28;20626;-66
2023/08/17 01:17:48;;;;;;;3.87;1.90;;;21.30;99.90;;;21.84;92.76;100723.72;4994674;28;20630;-66
2023/08/17 01:20:16;;;;;;;2.77;2.00;;;21.40;99.90;;;21.82;92.72;100715.94;4966132;28;20653;-65
2023/08/17 01:22:48;;;;;;;2.20;2.10;;;21.30;99.90;;;21.78;92.75;100714.63;4985189;28;20698;-65
2023/08/17 01:25:15;;;;;;;1.80;1.70;;;21.30;99.90;;;21.76;92.95;100721.09;4986827;28;20636;-66
2023/08/17 01:27:45;;;;;;;3.97;2.30;;;21.30;99.90;;;21.74;92.83;100721.28;4970342;28;20760;-65
2023/08/17 01:30:17;;;;;;;2.50;2.30;;;21.20;99.90;;;21.74;92.99;100723.94;4997515;28;21082;-65
2023/08/17 01:33:07;;;;;;;2.00;1.90;;;21.20;99.90;;;21.74;93.02;100717.81;5000920;28;21059;-65
2023/08/17 01:35:50;;;;;;;1.50;1.50;;;21.20;99.90;;;21.69;92.95;100710.38;4985259;28;20630;-65
2023/08/17 01:38:19;;;;;;;5.23;2.23;;;21.20;99.90;;;21.68;93.53;100711.38;4983583;28;20657;-66
2023/08/17 01:40:47;;;;;;;2.27;2.07;;;21.20;99.90;;;21.69;93.33;100707.72;5006990;28;21787;-67
2023/08/17 01:43:16;;;;;;;1.80;1.70;;;21.20;99.90;;;21.70;92.97;100716.53;4989643;28;20718;-65
2023/08/17 01:45:44;;;;;;;2.80;2.30;;;21.20;99.90;;;21.67;93.01;100706.25;4972981;28;21039;-65
2023/08/17 01:48:11;;;;;;;3.03;1.97;;;21.20;99.90;;;21.66;93.08;100702.75;4984899;28;20639;-66
2023/08/17 01:50:37;;;;;;;2.47;2.07;;;21.20;99.90;;;21.63;92.74;100705.78;4992304;28;20751;-65
2023/08/17 01:53:04;;;;;;;2.23;2.03;;;21.10;99.90;;;21.60;93.05;100699.00;4984018;28;20725;-65
2023/08/17 01:55:31;;;;;;;2.47;2.27;;;21.10;99.90;;;21.57;92.99;100703.84;4985711;28;20746;-65
2023/08/17 01:57:58;;;;;;;2.50;2.30;;;21.10;99.90;;;21.54;93.12;100696.25;4978446;28;20725;-66
2023/08/17 02:00:25;;;;;;;2.67;2.47;;;21.00;99.90;;;21.53;93.08;100691.91;5001007;28;20662;-65
2023/08/17 02:02:52;;;;;;;2.60;2.40;;;21.00;99.90;;;21.50;93.20;100695.78;4970687;28;20729;-66
2023/08/17 02:05:19;;;;;;;2.10;1.90;;;21.00;99.90;;;21.50;93.18;100695.78;4980187;28;20646;-65
2023/08/17 02:07:46;;;;;;;2.40;2.30;;;21.00;99.90;;;21.48;93.45;100692.47;4984053;28;20766;-67
2023/08/17 02:10:13;;;;;;;3.53;2.67;;;21.00;99.90;;;21.47;93.57;100689.97;4991374;28;21492;-64
2023/08/17 02:12:40;;;;;;;3.90;2.93;;;21.00;99.90;;;21.46;93.54;100693.66;4970873;28;20674;-65
2023/08/17 02:15:08;;;;;;;2.40;2.30;;;21.00;99.90;;;21.48;93.55;100695.13;4980050;28;21214;-65
2023/08/17 02:17:34;;;;;;;3.20;2.10;;;21.00;99.90;;;21.48;93.31;100689.00;5001944;28;20654;-65
2023/08/17 02:20:03;;;;;;;1.90;1.80;;;21.00;99.90;;;21.45;93.15;100684.88;4987661;28;21073;-65
2023/08/17 02:22:30;;;;;;;2.37;2.07;;;21.00;99.90;;;21.44;93.42;100679.75;4975511;28;20733;-65
2023/08/17 02:24:57;;;;;;;2.13;2.03;;;20.90;99.90;;;21.42;93.31;100679.91;4972666;28;21062;-64
2023/08/17 02:27:24;;;;;;;2.10;2.00;;;20.90;99.90;;;21.40;93.52;100679.25;4988584;28;20760;-65
2023/08/17 02:29:52;;;;;;;2.43;2.20;;;20.90;99.90;;;21.38;93.42;100675.94;4988395;28;20651;-66
2023/08/17 02:32:18;;;;;;;2.47;2.27;;;20.90;99.90;;;21.36;93.81;100672.66;4977800;28;20658;-65
2023/08/17 02:34:45;;;;;;;3.00;2.70;;;20.90;99.90;;;21.36;93.65;100672.66;4978801;28;20638;-67
2023/08/17 02:37:12;;;;;;;3.00;2.70;;;20.90;99.90;;;21.37;93.54;100674.31;4992825;28;20709;-65
2023/08/17 02:39:39;;;;;;;5.50;2.20;;;20.90;99.90;;;21.32;93.46;100671.38;4989258;28;21191;-66
2023/08/17 02:42:06;;;;;;;2.50;2.33;;;20.80;99.90;;;21.30;93.74;100668.06;4970183;28;20815;-65
2023/08/17 02:44:33;;;;;;;2.10;1.90;;;20.90;99.90;;;21.27;93.75;100678.22;4975851;28;21213;-66
2023/08/17 02:47:00;;;;;;;2.23;2.13;;;20.80;99.90;;;21.27;93.95;100671.09;5004665;28;20670;-66
2023/08/17 02:49:27;;;;;;;2.40;2.23;;;20.80;99.90;;;21.26;93.97;100676.56;4989738;28;20650;-65
2023/08/17 02:51:54;;;;;;;2.67;2.47;;;20.80;99.90;;;21.22;94.18;100676.09;4974566;28;20670;-65
2023/08/17 02:54:21;;;;;;;3.57;2.70;;;20.80;99.90;;;21.22;94.57;100676.09;4981502;28;20683;-66
2023/08/17 02:56:48;;;;;;;3.20;2.20;;;20.80;99.90;;;21.22;94.46;100681.41;4988011;28;20642;-66
2023/08/17 02:59:15;;;;;;;3.33;2.90;;;20.70;99.90;;;21.24;94.27;100679.41;4979296;28;21291;-65
2023/08/17 03:01:42;;;;;;;3.83;3.20;;;20.80;99.90;;;21.26;94.46;100672.09;4996568;28;21264;-64
2023/08/17 03:04:09;;;;;;;2.90;2.67;;;20.80;99.90;;;21.29;94.08;100669.09;4979837;28;20631;-64
2023/08/17 03:06:35;;;;;;;3.53;3.10;;;20.80;99.90;;;21.32;94.12;100676.69;4978114;28;20674;-64
2023/08/17 03:09:03;;;;;;;4.00;3.17;;;20.80;99.90;;;21.33;93.65;100680.16;4983379;28;20633;-64
2023/08/17 03:11:30;;;;;;;2.40;2.20;;;20.80;99.90;;;21.32;93.22;100674.03;4972806;28;20660;-65
2023/08/17 03:14:02;;;;;;;3.00;2.73;;;20.80;99.90;;;21.36;93.34;100674.50;4987211;28;20722;-63
2023/08/17 03:16:30;;;;;;;4.43;2.80;;;20.80;99.90;;;21.33;93.33;100670.38;4960024;28;20667;-64
2023/08/17 03:18:58;;;;;;;2.60;2.40;;;20.80;99.90;;;21.34;93.37;100674.66;4977035;28;20644;-65
2023/08/17 03:21:25;;;;;;;3.33;2.57;;;20.80;99.90;;;21.33;93.37;100672.19;4982397;28;21042;-64
2023/08/17 03:23:52;;;;;;;5.47;2.80;;;20.80;99.90;;;21.33;93.63;100677.50;4975618;28;20761;-65
2023/08/17 03:26:19;;;;;;;3.87;2.50;;;20.80;99.90;;;21.30;93.49;100681.34;4987978;28;20729;-65
2023/08/17 03:28:46;;;;;;;4.03;2.73;;;20.80;99.90;;;21.32;93.64;100683.81;4970222;28;20682;-65
2023/08/17 03:31:13;;;;;;;2.93;2.73;;;20.80;99.90;;;21.30;93.60;100685.81;4969642;28;20749;-65
2023/08/17 03:33:40;;;;;;;2.70;2.30;;;20.80;99.90;;;21.30;93.18;100693.78;4986913;28;21275;-64
2023/08/17 03:36:07;;;;;;;1.77;1.67;;;20.80;99.90;;;21.29;93.34;100685.00;4975977;28;20653;-64
2023/08/17 03:38:34;;;;;;;1.60;1.50;;;20.80;99.90;;;21.27;92.91;100689.66;4977133;28;20667;-65
2023/08/17 03:41:01;;;;;;;1.90;1.80;;;20.80;99.90;;;21.25;93.09;100691.66;4982662;28;20736;-65
2023/08/17 03:43:28;;;;;;;2.50;2.17;;;20.80;99.90;;;21.23;93.63;100685.69;4981730;28;20653;-64
2023/08/17 03:45:55;;;;;;;2.73;2.53;;;20.80;99.90;;;21.22;93.82;100676.09;4991431;28;20630;-65
2023/08/17 03:48:22;;;;;;;3.50;2.57;;;20.80;99.90;;;21.25;94.05;100681.03;4984215;28;20688;-65
2023/08/17 03:50:54;;;;;;;3.67;3.27;;;20.80;99.90;;;21.27;94.05;100678.22;4974794;28;20679;-65
2023/08/17 03:53:21;;;;;;;3.60;2.87;;;20.80;99.90;;;21.30;93.89;100683.16;4975126;28;20733;-65
2023/08/17 03:55:51;;;;;;;3.70;3.30;;;20.80;99.90;;;21.30;93.42;100684.00;4991130;28;20614;-65
2023/08/17 03:58:18;;;;;;;6.80;3.73;;;20.80;99.90;;;21.31;93.48;100680.34;4991105;28;21061;-65
2023/08/17 04:00:53;;;;;;;4.90;3.67;;;20.80;99.90;;;21.32;93.85;100675.84;4984077;28;20706;-65
2023/08/17 04:03:20;;;;;;;11.30;4.03;;;20.80;99.90;;;21.34;93.38;100687.94;4981766;28;20648;-65
2023/08/17 04:05:47;;;;;;;7.90;4.53;;;20.80;99.90;;;21.36;93.72;100688.56;4981300;28;20820;-65
2023/08/17 04:08:14;;;;;;;6.60;4.33;;;20.80;99.90;;;21.39;93.53;100684.75;4986576;28;20708;-65
2023/08/17 04:10:41;;;;;;;9.23;5.00;;;20.90;99.90;;;21.40;93.62;100678.44;4989890;28;20701;-65
2023/08/17 04:13:07;;;;;;;7.10;4.60;;;20.90;99.90;;;21.41;93.93;100682.75;4979110;28;20637;-65
2023/08/17 04:15:34;;;;;;;8.40;5.87;;;20.90;99.90;;;21.43;93.75;100694.00;4974197;28;20639;-65
2023/08/17 04:18:01;;;;;;;7.77;5.13;;;20.90;99.90;;;21.44;93.77;100699.16;4965271;28;20730;-65
2023/08/17 04:20:28;;;;;;;6.97;4.80;;;20.90;99.90;;;21.47;94.03;100690.81;4969294;28;20663;-65
2023/08/17 04:22:55;;;;;;;8.87;5.70;;;21.00;99.90;;;21.50;93.22;100700.25;4981509;28;20763;-64
2023/08/17 04:25:22;;;;;;;8.50;5.60;;;21.00;99.90;;;21.51;93.67;100699.25;4974653;28;20654;-65
2023/08/17 04:27:49;;;;;;;9.03;4.87;;;21.00;99.90;;;21.43;93.38;100705.47;4989618;28;21159;-64
2023/08/17 04:30:16;;;;;;;8.40;5.30;;;21.00;99.90;;;21.43;94.36;100709.94;4996248;28;20749;-63
2023/08/17 04:32:43;;;;;;;6.13;3.90;;;20.90;99.90;;;21.40;93.89;100707.66;4984079;28;20734;-66
2023/08/17 04:35:10;;;;;;;7.70;4.50;;;20.90;99.90;;;21.36;94.63;100712.47;4990478;28;20627;-65
2023/08/17 04:37:37;;;;;;;8.53;5.40;;;20.90;99.90;;;21.31;95.32;100716.66;4985536;28;20646;-66
2023/08/17 04:40:05;;;;;;;11.07;6.07;;;20.80;99.90;;;21.30;95.28;100715.00;4982815;28;20658;-66
2023/08/17 04:42:32;;;;;;;13.30;6.83;;;20.80;99.90;;;21.29;95.33;100713.38;4985870;28;20769;-66
2023/08/17 04:44:59;;;;;;;7.80;4.97;;;20.80;99.90;;;21.25;95.11;100720.03;4977765;28;21013;-66
2023/08/17 04:47:26;;;;;;;8.93;5.10;;;20.80;99.90;;;21.18;95.85;100721.72;4974591;28;21325;-66
2023/08/17 04:49:53;;;;;;;12.60;6.03;;;20.70;99.90;;;21.15;96.40;100712.28;4968110;28;20742;-66
2023/08/17 04:52:20;;;;;;;10.83;6.33;;;20.70;99.90;;;21.15;97.09;100720.25;4971632;28;21022;-65
2023/08/17 04:54:47;;;;;;;10.73;6.03;;;20.70;99.90;;;21.15;97.23;100712.28;4981053;28;20696;-66
2023/08/17 04:57:14;;;;;;;14.57;6.77;;;20.70;99.90;;;21.17;96.94;100715.59;4983037;28;20725;-66
2023/08/17 04:59:41;;;;;;;12.10;6.13;;;20.70;99.90;;;21.21;96.77;100716.09;4969825;28;20730;-66
2023/08/17 05:02:08;;;;;;;12.97;7.03;;;20.70;99.90;;;21.25;96.93;100728.81;4973296;28;21022;-66
2023/08/17 05:04:36;;;;;;;11.60;6.27;;;20.80;99.90;;;21.31;96.42;100736.09;4987355;28;21366;-66
2023/08/17 05:07:03;;;;;;;12.07;5.87;;;20.80;99.90;;;21.33;95.91;100727.94;4983559;28;20751;-65
2023/08/17 05:09:30;;;;;;;11.20;6.10;;;20.80;99.90;;;21.33;96.04;100727.94;4987166;28;20673;-65
2023/08/17 05:11:57;;;;;;;14.00;6.93;;;20.80;99.90;;;21.37;95.15;100732.72;5001780;28;20630;-65
2023/08/17 05:14:24;;;;;;;12.70;6.40;;;20.90;99.90;;;21.39;95.19;100730.72;4983119;28;20678;-66
2023/08/17 05:16:51;;;;;;;13.53;6.77;;;20.90;99.90;;;21.42;94.86;100730.34;4988862;28;20726;-66
2023/08/17 05:19:18;;;;;;;15.30;7.10;;;20.90;99.90;;;21.43;94.42;100732.00;4976192;28;21214;-65
2023/08/17 05:21:45;;;;;;;14.67;6.30;;;20.90;99.90;;;21.44;94.60;100738.13;4969742;28;20647;-65
2023/08/17 05:24:12;;;;;;;16.07;8.00;;;20.90;99.90;;;21.49;94.47;100733.94;4970603;28;20646;-65
2023/08/17 05:26:38;;;;;;;14.40;6.77;;;21.00;99.90;;;21.53;94.44;100737.88;4972089;28;20631;-66
2023/08/17 05:29:05;;;;;;;15.17;6.60;;;21.10;99.90;;;21.58;94.04;100742.66;4987942;28;20638;-66
2023/08/17 05:31:32;;;;;;;11.47;6.17;;;21.10;99.90;;;21.60;93.64;100748.63;4979559;28;21025;-65
2023/08/17 05:33:59;;;;;;;12.10;7.07;;;21.10;99.90;;;21.55;93.06;100748.34;4977073;28;21013;-67
2023/08/17 05:36:26;;;;;;;10.63;5.60;;;21.10;99.90;;;21.58;94.13;100745.31;4974653;28;20661;-65
2023/08/17 05:38:53;;;;;;;12.77;6.57;;;21.10;99.90;;;21.56;94.40;100761.44;4982374;28;21207;-65
2023/08/17 05:41:20;;;;;;;12.40;6.20;;;21.10;99.90;;;21.55;93.87;100762.41;5003431;28;20658;-66
2023/08/17 05:43:48;;;;;;;9.87;5.87;;;21.10;99.90;;;21.53;94.05;100753.81;4973679;28;21036;-66
2023/08/17 05:46:15;;;;;;;11.70;5.50;;;21.00;99.90;;;21.54;94.27;100752.81;5002899;28;20642;-66
2023/08/17 05:48:42;;;;;;;10.67;6.03;;;21.00;99.90;;;21.56;94.27;100752.63;4992692;28;20681;-66
2023/08/17 05:51:09;;;;;;;16.40;7.30;;;21.10;99.90;;;21.64;94.95;100741.94;4986491;28;21455;-66
2023/08/17 05:53:36;;;;;;;9.30;5.30;;;21.10;99.90;;;21.63;93.97;100749.09;4967364;28;20686;-65
2023/08/17 05:56:03;;;;;;;16.50;8.40;;;21.20;99.90;;;21.68;94.57;100745.88;4982742;28;20637;-65
2023/08/17 05:58:30;;;;;;;9.73;5.37;;;21.20;99.90;;;21.76;93.64;100745.84;4998329;28;21187;-65
2023/08/17 06:01:08;;;;;;;16.67;8.40;;;21.30;99.90;;;21.78;93.62;100745.66;4988788;28;20661;-66
2023/08/17 06:03:36;;;;;;;16.27;8.30;;;21.30;99.90;;;21.84;93.27;100747.63;4994148;28;20639;-65
2023/08/17 06:06:05;;;;;;;10.17;6.30;;;21.30;99.90;;;21.88;92.55;100757.72;4992371;28;20651;-66
2023/08/17 06:08:32;;;;;;;8.87;5.70;;;21.40;99.90;;;21.90;92.74;100757.53;5001576;28;20705;-66
2023/08/17 06:10:59;;;;;;;9.97;6.17;;;21.40;99.90;;;21.93;92.51;100754.50;4995120;28;21094;-65
2023/08/17 06:13:26;;;;;;;17.13;8.23;;;21.40;99.90;;;21.97;92.80;100750.50;4986664;28;20654;-66
2023/08/17 06:15:53;;;;;;;15.03;8.67;;;21.50;99.90;;;22.09;92.18;100751.69;4967301;28;21488;-65
2023/08/17 06:18:24;;;;;;;12.27;7.17;;;21.60;99.90;;;22.16;90.99;100763.25;4980417;28;21069;-66
2023/08/17 06:20:53;;;;;;;14.60;7.57;;;21.70;99.90;;;22.19;90.85;100752.28;5006834;28;21035;-66
2023/08/17 06:23:20;;;;;;;13.10;7.30;;;21.70;99.90;;;22.26;90.87;100761.13;4989379;28;20649;-66
2023/08/17 06:25:47;;;;;;;8.10;5.40;;;21.80;99.90;;;22.29;90.53;100763.44;4993503;28;20645;-66
2023/08/17 06:28:14;;;;;;;13.23;7.23;;;21.80;99.90;;;22.23;89.96;100775.63;4990506;28;20670;-65
2023/08/17 06:30:41;;;;;;;9.47;6.43;;;21.80;99.90;;;22.18;90.72;100770.03;4975517;28;20751;-65
2023/08/17 06:33:08;;;;;;;10.73;6.10;;;21.70;99.90;;;22.15;90.52;100766.91;4974928;28;20666;-66
2023/08/17 06:35:35;;;;;;;8.10;4.33;;;21.70;99.90;;;22.15;90.99;100764.25;4979826;28;20634;-65
2023/08/17 06:38:03;;;;;;;12.77;7.50;;;21.70;99.90;;;22.17;91.50;100775.50;4983383;28;20631;-67
2023/08/17 06:40:29;;;;;;;11.00;6.17;;;21.70;99.90;;;22.23;90.83;100764.19;4981266;28;20658;-65
2023/08/17 06:42:56;;;;;;;8.20;5.30;;;21.70;99.90;;;22.28;89.85;100761.78;4969730;28;20663;-66
2023/08/17 06:45:23;;;;;;;13.40;7.90;;;21.80;99.90;;;22.29;89.96;100763.44;4974741;28;20643;-65
2023/08/17 06:47:50;;;;;;;12.30;7.57;;;21.80;99.90;;;22.33;89.84;100767.38;4971321;28;21291;-66
2023/08/17 06:50:17;;;;;;;12.53;6.93;;;21.80;99.90;;;22.44;89.59;100766.94;4981873;28;20657;-66
2023/08/17 06:52:44;;;;;;;12.43;7.30;;;21.90;99.90;;;22.51;88.46;100764.38;4991090;28;20630;-66
2023/08/17 06:55:11;;;;;;;12.17;7.43;;;22.00;99.90;;;22.58;87.12;100762.59;4974794;28;20635;-67
2023/08/17 06:57:38;;;;;;;14.70;8.40;;;22.10;99.90;;;22.57;86.65;100761.81;4978328;28;20615;-67
2023/08/17 07:00:05;;;;;;;9.60;6.07;;;22.00;99.90;;;22.57;87.12;100769.78;4983571;28;20716;-65
2023/08/17 07:02:34;;;;;;;10.13;7.07;;;22.10;99.90;;;22.56;87.06;100767.28;4987363;28;20651;-67
2023/08/17 07:05:18;;;;;;;13.77;8.63;;;22.10;99.90;;;22.61;87.28;100779.06;4967222;28;20645;-67
2023/08/17 07:07:45;;;;;;;12.00;7.60;;;22.10;99.90;;;22.63;86.92;100774.38;4989852;28;20688;-66
2023/08/17 07:10:12;;;;;;;11.27;7.47;;;22.20;99.90;;;22.68;86.48;100782.63;4984114;28;20723;-65
2023/08/17 07:12:39;;;;;;;9.77;5.93;;;22.20;99.90;;;22.70;86.59;100775.28;4975734;28;20623;-65
2023/08/17 07:15:12;;;;;;;12.60;7.07;;;22.20;99.90;;;22.72;86.09;100773.25;4997676;28;20696;-64
2023/08/17 07:17:39;;;;;;;10.97;6.90;;;22.20;99.90;;;22.74;86.07;100773.94;4971337;28;20745;-64
2023/08/17 07:20:07;;;;;;;8.80;5.60;;;22.20;99.90;;;22.70;85.95;100775.28;4964504;28;20667;-65
2023/08/17 07:22:43;;;;;;;6.87;4.20;;;22.20;99.90;;;22.59;86.61;100767.78;4983922;28;21159;-64
2023/08/17 07:25:10;;;;;;;13.87;6.63;;;22.10;99.90;;;22.55;87.02;100768.31;4979137;28;20653;-64
2023/08/17 07:27:37;;;;;;;8.50;5.67;;;22.10;99.90;;;22.55;87.69;100765.66;4973902;28;21331;-65
2023/08/17 07:30:05;;;;;;;11.97;7.30;;;22.00;99.90;;;22.50;87.29;100768.03;4976268;28;21167;-64
2023/08/17 07:32:32;;;;;;;13.97;7.50;;;22.00;99.90;;;22.51;88.04;100767.03;4979147;28;21266;-65
2023/08/17 07:34:59;;;;;;;13.00;7.67;;;22.00;99.90;;;22.59;87.42;100775.78;4970709;28;20650;-66
2023/08/17 07:37:32;;;;;;;8.40;5.23;;;22.10;99.90;;;22.62;86.29;100777.22;4986930;28;21219;-65
2023/08/17 07:40:00;;;;;;;12.40;7.50;;;22.10;99.90;;;22.66;86.99;100781.97;4978152;28;20654;-64
2023/08/17 07:42:27;;;;;;;8.93;5.60;;;22.20;99.90;;;22.69;86.28;100783.47;4977876;28;20631;-63
2023/08/17 07:44:54;;;;;;;10.10;6.90;;;22.20;99.90;;;22.73;85.79;100788.22;4971804;28;20639;-65
2023/08/17 07:47:21;;;;;;;9.07;6.50;;;22.20;99.90;;;22.83;85.76;100778.13;4978273;28;20623;-64
2023/08/17 07:49:48;;;;;;;8.73;6.30;;;22.30;99.90;;;22.91;84.80;100777.19;4970227;28;20651;-64
2023/08/17 07:52:16;;;;;;;8.10;6.00;;;22.40;99.90;;;22.98;84.71;100784.25;4972138;28;20673;-65
2023/08/17 07:54:43;;;;;;;8.20;5.30;;;22.40;99.90;;;23.06;84.14;100785.97;4976540;28;20741;-65
2023/08/17 07:57:10;;;;;;;9.17;6.73;;;22.50;99.90;;;23.08;83.79;100786.63;4999251;28;21089;-65
2023/08/17 07:59:37;;;;;;;8.50;6.30;;;22.60;99.90;;;23.11;83.90;100792.38;4973276;28;20644;-65
2023/08/17 08:02:04;;;;;;;7.23;4.93;;;22.60;99.90;;;23.15;83.36;100788.31;4962558;28;20705;-66
2023/08/17 08:04:31;;;;;;;8.37;4.77;;;22.60;99.90;;;23.17;83.33;100777.47;4983645;28;20651;-64
2023/08/17 08:06:58;;;;;;;10.40;6.50;;;22.60;99.90;;;23.18;83.60;100787.13;4980703;28;20714;-66
2023/08/17 08:09:25;;;;;;;10.33;6.43;;;22.60;99.90;;;23.23;84.17;100778.59;4981776;28;20666;-65
2023/08/17 08:11:52;;;;;;;9.97;7.33;;;22.70;99.90;;;23.32;83.61;100782.78;4977756;28;20682;-65
2023/08/17 08:14:19;;;;;;;11.60;6.37;;;22.80;99.90;;;23.40;83.25;100788.03;4977623;28;20654;-64
2023/08/17 08:16:47;;;;;;;10.77;7.20;;;22.80;99.90;;;23.43;82.36;100780.47;4975878;28;21244;-66
2023/08/17 08:19:14;;;;;;;7.00;5.20;;;22.90;99.90;;;23.47;82.62;100789.72;4978482;28;21174;-65
2023/08/17 08:21:40;;;;;;;5.87;4.13;;;23.00;99.90;;;23.46;83.18;100781.94;4982472;28;21290;-65
2023/08/17 08:24:07;;;;;;;11.10;6.30;;;22.90;99.90;;;23.46;83.05;100780.09;4975998;28;21235;-64
2023/08/17 08:26:44;;;;;;;9.37;6.00;;;23.00;99.90;;;23.55;82.93;100786.13;4977462;28;21198;-65
2023/08/17 08:29:11;;;;;;;7.90;4.60;;;23.10;99.90;;;23.72;81.48;100784.84;4979936;28;20666;-65
2023/08/17 08:31:38;;;;;;;11.07;7.60;;;23.20;99.90;;;23.81;81.54;100776.50;4987218;28;20689;-65
2023/08/17 08:34:05;;;;;;;13.67;7.50;;;23.20;99.90;;;23.85;80.81;100769.78;4980940;28;20643;-66
2023/08/17 08:36:32;;;;;;;15.47;8.50;;;23.30;99.90;;;23.88;80.90;100766.75;4971462;28;21283;-64
2023/08/17 08:38:59;;;;;;;11.37;8.07;;;23.30;99.90;;;23.86;80.46;100767.94;4967499;28;20670;-64
2023/08/17 08:41:27;;;;;;;10.97;7.83;;;23.30;99.90;;;23.91;80.44;100776.19;4974739;28;20746;-66
2023/08/17 08:43:54;;;;;;;7.80;6.47;;;23.40;99.90;;;23.94;79.32;100775.78;4993837;28;20670;-67
2023/08/17 08:46:26;;;;;;;10.10;6.47;;;23.40;99.90;;;24.14;79.43;100765.31;4981979;28;20793;-65
2023/08/17 08:48:55;;;;;;;11.83;6.40;;;23.60;99.90;;;24.52;78.35;100766.56;4999463;28;20662;-65
2023/08/17 08:51:30;;;;;;;7.23;6.13;;;23.90;99.90;;;24.88;76.70;100769.84;4976209;28;20717;-65
2023/08/17 08:54:13;;;;;;;8.40;5.97;;;24.30;99.90;;;25.06;75.64;100772.81;4979205;28;20689;-66
2023/08/17 08:56:45;;;;;;;5.47;4.53;;;24.50;99.90;;;25.12;75.23;100765.81;4986409;28;20647;-65
2023/08/17 08:59:14;;;;;;;7.37;5.60;;;24.60;99.90;;;25.05;74.93;100767.66;4991418;28;20633;-65
2023/08/17 09:01:42;;;;;;;7.57;6.30;;;24.50;99.90;;;24.94;75.07;100773.56;4985318;28;20671;-64
2023/08/17 09:04:09;;;;;;;7.70;5.93;;;24.50;99.90;;;24.92;75.78;100770.28;4986969;28;21273;-66
2023/08/17 09:06:38;;;;;;;8.50;7.13;;;24.40;99.90;;;24.95;75.56;100777.88;4993124;28;20638;-67
2023/08/17 09:09:06;;;;;;;8.70;6.73;;;24.40;99.90;;;24.88;74.93;100774.34;4970548;28;20701;-65
2023/08/17 09:11:33;;;;;;;7.37;6.20;;;24.40;99.90;;;24.85;75.71;100774.78;4984503;28;20643;-67
2023/08/17 09:14:00;;;;;;;9.37;7.13;;;24.40;99.90;;;24.89;75.76;100768.84;4996020;28;20634;-65
2023/08/17 09:16:28;;;;;;;6.97;6.27;;;24.40;99.90;;;25.02;74.49;100760.84;5004029;28;20710;-65
2023/08/17 09:18:55;;;;;;;9.50;6.47;;;24.50;99.90;;;25.11;74.38;100764.16;4973309;28;20646;-65
2023/08/17 09:21:24;;;;;;;10.50;7.53;;;24.60;99.90;;;25.20;74.33;100765.63;4992537;28;20654;-66
2023/08/17 09:23:53;;;;;;;8.13;6.80;;;24.70;99.90;;;25.28;73.66;100766.28;4983241;28;20650;-67
2023/08/17 09:26:25;;;;;;;8.80;6.50;;;24.80;99.90;;;25.31;74.04;100767.72;4984981;28;20642;-66
2023/08/17 09:28:54;;;;;;;8.13;6.53;;;24.80;99.90;;;25.34;74.24;100765.47;4973070;28;20766;-65
2023/08/17 09:31:21;;;;;;;12.60;7.33;;;24.80;99.90;;;25.39;73.95;100770.19;4985674;28;20661;-66
2023/08/17 09:33:52;;;;;;;5.67;4.83;;;24.90;99.90;;;25.50;73.74;100774.97;4974736;28;20689;-66
2023/08/17 09:36:23;;;;;;;5.97;5.40;;;24.90;99.90;;;25.58;73.18;100777.44;4985559;28;20696;-66
2023/08/17 09:38:51;;;;;;;11.80;7.87;;;25.00;99.90;;;25.65;73.03;100767.59;4978487;28;21130;-67
2023/08/17 09:41:19;;;;;;;6.60;5.90;;;25.10;99.90;;;25.77;71.93;100760.59;4982764;28;20661;-65
2023/08/17 09:43:49;;;;;;;6.43;5.80;;;25.20;99.90;;;25.81;72.07;100767.19;4982915;28;22897;-65
2023/08/17 09:46:16;;;;;;;4.60;4.03;;;25.30;99.90;;;25.88;72.21;100768.00;4980953;28;20641;-65
2023/08/17 09:48:46;;;;;;;7.10;6.10;;;25.40;99.90;;;25.90;71.86;100768.63;4986360;28;20662;-64
2023/08/17 09:51:17;;;;;;;9.47;6.20;;;25.40;99.90;;;25.93;71.73;100772.75;4981953;28;20653;-68
2023/08/17 09:53:44;;;;;;;9.30;6.90;;;25.40;99.90;;;25.94;71.33;100769.03;4983441;28;20630;-66
2023/08/17 09:56:12;;;;;;;4.57;4.17;;;25.50;99.90;;;26.03;71.43;100765.13;5000886;28;20729;-65
2023/08/17 09:58:42;;;;;;;4.87;4.47;;;25.50;99.90;;;26.20;70.57;100760.19;5006959;28;20648;-67
2023/08/17 10:01:09;;;;;;;6.73;5.27;;;25.70;99.90;;;26.38;70.59;100753.16;4981668;28;20666;-65
2023/08/17 10:03:39;;;;;;;6.97;5.80;;;25.90;99.90;;;26.66;69.55;100755.56;4983994;28;21048;-67
2023/08/17 10:06:09;;;;;;;7.17;6.47;;;26.10;99.90;;;26.88;69.19;100754.22;4973996;28;21072;-66
2023/08/17 10:08:46;;;;;;;7.90;5.90;;;26.40;99.90;;;27.22;68.26;100753.00;4981781;28;21271;-66
2023/08/17 10:11:19;;;;;;;6.40;5.70;;;26.70;99.90;;;27.66;65.96;100750.28;4978466;28;21218;-64
2023/08/17 10:13:52;;;;;;;5.50;5.00;;;27.10;99.90;;;28.35;63.56;100750.88;4992170;28;20641;-65
2023/08/17 10:16:29;;;;;;;5.70;4.50;;;27.90;99.90;;;28.89;61.49;100750.06;4985761;28;20708;-64